Time;durP1;ratioP1;P1;durP2;ratioP2;P2;SDS_P1;SDS_P2;PMS_P1;PMS_P2;Temp;Humidity;BMP_temperature;BMP_pressure;BME280_temperature;BME280_humidity;BME280_pressure;Samples;Min_cycle;Max_cycle;Signal;HPM_P1;HPM_P2
2021/07/14 00:00:42;;;;;;;6.90;5.43;;;;;;;21.60;73.84;101045.38;5048720;28;20205;-67
2021/07/14 00:03:10;;;;;;;7.00;5.47;;;;;;;21.57;73.45;101043.00;5047681;28;20201;-67
2021/07/14 00:05:39;;;;;;;12.87;5.60;;;;;;;21.52;74.30;101039.91;5048589;28;20820;-67
2021/07/14 00:08:08;;;;;;;6.87;5.50;;;;;;;21.50;74.46;101041.97;5048475;28;20202;-67
2021/07/14 00:10:37;;;;;;;6.30;5.00;;;;;;;21.45;74.33;101038.88;5048668;28;20225;-67
2021/07/14 00:13:22;;;;;;;6.57;4.93;;;;;;;21.39;74.08;101041.22;5048922;28;20204;-66
2021/07/14 00:24:23;;;;;;;8.70;5.80;;;;;;;21.37;73.83;101043.28;5025797;28;20874;-67
2021/07/14 00:26:51;;;;;;;7.97;5.33;;;;;;;21.33;74.20;101044.63;5052465;28;20488;-67
2021/07/14 00:29:22;;;;;;;6.37;4.93;;;;;;;21.34;74.00;101049.09;5052416;28;20198;-67
2021/07/14 00:31:50;;;;;;;6.67;5.33;;;;;;;21.31;74.25;101045.81;5051836;28;20202;-67
2021/07/14 00:34:18;;;;;;;8.53;5.13;;;;;;;21.15;74.24;101019.28;5051727;28;20202;-67
2021/07/14 00:36:46;;;;;;;8.33;5.20;;;;;;;21.24;75.00;101045.66;5050860;28;20603;-67
2021/07/14 00:39:15;;;;;;;8.73;5.40;;;;;;;21.23;74.17;101043.94;5050629;28;20226;-67
2021/07/14 00:41:43;;;;;;;8.83;5.53;;;;;;;21.24;73.87;101044.78;5051015;28;20201;-67
2021/07/14 00:44:11;;;;;;;8.77;6.17;;;;;;;21.23;73.57;101052.13;5050657;28;20709;-67
2021/07/14 00:46:40;;;;;;;9.93;5.27;;;;;;;21.19;74.01;101053.44;5050608;28;20190;-67
2021/07/14 00:49:10;;;;;;;7.63;5.50;;;;;;;21.17;74.40;101049.19;5050906;28;20201;-68
2021/07/14 00:51:39;;;;;;;8.03;5.43;;;;;;;21.15;74.85;101052.06;5036961;28;20571;-67
2021/07/14 00:54:07;;;;;;;7.70;5.27;;;;;;;21.11;75.11;101053.41;5050635;28;20574;-67
2021/07/14 00:56:35;;;;;;;7.10;5.33;;;;;;;21.02;74.95;101057.97;5050145;28;20684;-67
2021/07/14 00:59:03;;;;;;;7.43;5.60;;;;;;;21.04;75.04;101057.81;5050731;28;20214;-67
2021/07/14 01:01:31;;;;;;;8.17;5.57;;;;;;;21.03;75.12;101056.09;5049118;28;20563;-67
2021/07/14 01:04:09;;;;;;;6.63;5.10;;;;;;;21.00;75.11;101064.63;5050725;28;20224;-68
2021/07/14 01:06:48;;;;;;;7.10;5.60;;;;;;;20.96;74.64;101055.91;5045496;28;20205;-67
2021/07/14 01:09:23;;;;;;;8.13;5.93;;;;;;;20.99;74.64;101052.84;5049894;28;20197;-67
2021/07/14 01:11:54;;;;;;;8.97;5.53;;;;;;;20.87;74.52;101031.47;5049493;28;20691;-67
2021/07/14 01:14:35;;;;;;;7.73;5.57;;;;;;;21.05;74.23;101063.13;5049959;28;20589;-67
2021/07/14 01:17:12;;;;;;;7.23;5.80;;;;;;;21.05;74.45;101060.38;5043589;28;20194;-67
2021/07/14 01:20:04;;;;;;;7.77;6.00;;;;;;;21.03;74.59;101054.22;5050610;28;20210;-68
2021/07/14 01:22:44;;;;;;;8.37;5.90;;;;;;;20.97;74.62;101054.03;5061372;28;20200;-67
2021/07/14 01:25:25;;;;;;;7.67;5.60;;;;;;;20.90;76.00;101058.44;5046859;28;20288;-67
2021/07/14 01:27:58;;;;;;;6.80;5.43;;;;;;;20.89;75.13;101062.19;5045282;28;20912;-66
2021/07/14 01:30:26;;;;;;;7.27;5.33;;;;;;;20.85;75.57;101050.75;5051479;28;20194;-67
2021/07/14 01:32:56;;;;;;;7.50;5.70;;;;;;;20.83;74.71;101050.06;5045057;28;20289;-66
2021/07/14 01:35:31;;;;;;;8.03;5.90;;;;;;;20.87;74.66;101058.78;5051287;28;20220;-67
2021/07/14 01:38:01;;;;;;;11.40;6.33;;;;;;;20.87;74.95;101056.91;5051425;28;20640;-67
2021/07/14 01:40:32;;;;;;;7.43;5.63;;;;;;;20.88;75.03;101063.22;5041436;28;20226;-67
2021/07/14 01:43:04;;;;;;;8.27;6.27;;;;;;;20.85;75.29;101063.53;5050813;28;20720;-67
2021/07/14 01:45:36;;;;;;;8.23;5.80;;;;;;;20.85;75.82;101056.22;5050118;28;20206;-67
2021/07/14 01:48:06;;;;;;;7.53;6.00;;;;;;;20.86;75.73;101051.59;5050515;28;20628;-67
2021/07/14 01:50:35;;;;;;;8.43;5.63;;;;;;;20.80;75.73;101057.69;5047677;28;20202;-67
2021/07/14 01:53:05;;;;;;;8.00;6.03;;;;;;;20.74;76.41;101051.00;5050615;28;20194;-67
2021/07/14 01:55:35;;;;;;;8.50;6.27;;;;;;;20.76;76.01;101049.81;5050011;28;20194;-67
2021/07/14 01:58:05;;;;;;;10.17;6.73;;;;;;;;;;5050569;28;20208;-67
2021/07/14 02:00:35;;;;;;;9.27;6.30;;;;;;;20.77;75.60;101054.25;5049086;28;20221;-67
2021/07/14 02:03:08;;;;;;;8.43;6.03;;;;;;;20.47;75.42;101005.66;5050649;28;20221;-67
2021/07/14 02:05:40;;;;;;;9.57;6.40;;;;;;;20.66;75.56;101029.13;5049351;28;20260;-67
2021/07/14 02:08:08;;;;;;;9.37;6.27;;;;;;;20.78;75.46;101044.19;5050203;28;20238;-67
2021/07/14 02:10:39;;;;;;;9.87;6.03;;;;;;;20.78;75.91;101053.25;5049926;28;20190;-67
2021/07/14 02:13:09;;;;;;;10.50;6.10;;;;;;;20.78;76.03;101055.97;5050406;28;20202;-67
2021/07/14 02:15:40;;;;;;;10.17;6.90;;;;;;;20.80;76.21;101058.53;5045454;28;20749;-67
2021/07/14 02:18:12;;;;;;;9.13;6.60;;;;;;;20.82;76.25;101061.16;5049985;28;20692;-67
2021/07/14 02:20:41;;;;;;;13.07;6.37;;;;;;;20.81;75.65;101060.25;5049262;28;20688;-67
2021/07/14 02:23:10;;;;;;;9.87;6.47;;;;;;;20.85;75.15;101056.22;5039641;28;20530;-67
2021/07/14 02:25:38;;;;;;;8.80;6.33;;;;;;;20.85;75.30;101053.47;5061073;28;20204;-67
2021/07/14 02:28:08;;;;;;;7.23;5.77;;;;;;;20.85;75.03;101060.81;5049765;28;20194;-67
2021/07/14 02:30:36;;;;;;;8.50;5.80;;;;;;;20.87;74.75;101072.44;5049278;28;20212;-67
2021/07/14 02:33:07;;;;;;;8.27;5.90;;;;;;;20.81;75.63;101064.84;5048052;28;20197;-67
2021/07/14 02:35:38;;;;;;;8.33;5.90;;;;;;;20.85;75.33;101067.13;5049047;28;20259;-67
2021/07/14 02:38:13;;;;;;;7.37;5.90;;;;;;;20.64;75.28;101042.94;5064860;28;20198;-67
2021/07/14 02:40:46;;;;;;;9.00;6.00;;;;;;;20.88;75.59;101076.88;5049347;28;20231;-67
2021/07/14 02:43:21;;;;;;;10.20;5.73;;;;;;;20.92;75.71;101080.97;5049000;28;20202;-67
2021/07/14 02:45:51;;;;;;;6.90;5.20;;;;;;;20.98;75.90;101077.59;5043239;28;20240;-67
2021/07/14 02:48:20;;;;;;;7.50;5.57;;;;;;;21.11;76.54;101072.53;5048881;28;20312;-67
2021/07/14 02:50:52;;;;;;;8.00;5.10;;;;;;;21.29;76.26;101092.44;5049630;28;20222;-67
2021/07/14 02:53:22;;;;;;;8.70;5.80;;;;;;;21.49;76.77;101086.72;5048896;28;20236;-67
2021/07/14 02:55:55;;;;;;;7.03;5.17;;;;;;;21.68;75.80;101086.41;5049387;28;20202;-67
2021/07/14 02:58:29;;;;;;;6.93;5.50;;;;;;;21.71;74.38;101088.81;5048208;28;20201;-67
2021/07/14 03:00:58;;;;;;;8.90;4.97;;;;;;;21.66;73.75;101085.72;5048896;28;20304;-67
2021/07/14 03:03:27;;;;;;;7.10;5.00;;;;;;;21.68;74.84;101100.06;5045651;28;20211;-67
2021/07/14 03:05:57;;;;;;;7.57;5.60;;;;;;;21.59;74.92;101090.16;5046645;28;20202;-67
2021/07/14 03:08:27;;;;;;;10.07;5.20;;;;;;;21.56;74.69;101085.03;5040696;28;20657;-67
2021/07/14 03:10:56;;;;;;;6.47;5.10;;;;;;;21.62;75.88;101087.94;5050564;28;20228;-67
2021/07/14 03:13:26;;;;;;;7.63;5.53;;;;;;;21.69;75.41;101080.75;5048765;28;20782;-67
2021/07/14 03:15:56;;;;;;;5.60;5.00;;;;;;;21.67;75.61;101058.22;5045952;28;20199;-67
2021/07/14 03:18:28;;;;;;;8.23;5.27;;;;;;;21.91;75.11;101076.53;5043339;28;20222;-67
2021/07/14 03:20:58;;;;;;;8.13;5.87;;;;;;;21.91;74.71;101072.94;5047401;28;20951;-67
2021/07/14 03:23:28;;;;;;;6.23;5.17;;;;;;;21.97;75.00;101075.84;5052887;28;20277;-67
2021/07/14 03:25:59;;;;;;;6.27;4.93;;;;;;;21.84;74.84;101053.63;5049281;28;20225;-68
2021/07/14 03:28:31;;;;;;;6.97;6.20;;;;;;;22.04;74.74;101069.72;5049652;28;20186;-67
2021/07/14 03:31:02;;;;;;;7.97;6.03;;;;;;;22.05;75.04;101076.94;5042924;28;20190;-67
2021/07/14 03:33:31;;;;;;;7.13;5.57;;;;;;;22.00;76.26;101074.66;5047296;28;20209;-67
2021/07/14 03:36:00;;;;;;;6.77;5.27;;;;;;;21.88;75.90;101044.06;5046714;28;20234;-67
2021/07/14 03:38:30;;;;;;;7.47;5.77;;;;;;;22.04;75.95;101067.88;5057980;28;20206;-67
2021/07/14 03:40:59;;;;;;;5.90;5.17;;;;;;;22.12;76.16;101059.66;5045262;28;20217;-66
2021/07/14 03:43:30;;;;;;;10.43;5.83;;;;;;;22.24;76.07;101060.16;5046099;28;20225;-67
2021/07/14 03:46:00;;;;;;;9.90;6.03;;;;;;;22.28;76.37;101062.38;5039593;28;20193;-68
2021/07/14 03:48:31;;;;;;;8.50;6.23;;;;;;;22.34;75.88;101060.81;5059150;28;20271;-67
2021/07/14 03:51:01;;;;;;;7.67;5.20;;;;;;;22.38;76.32;101056.75;5047875;28;20337;-67
2021/07/14 03:53:29;;;;;;;6.13;5.47;;;;;;;22.44;76.34;101050.56;5047446;28;20284;-65
2021/07/14 03:55:58;;;;;;;9.37;5.73;;;;;;;22.41;77.04;101039.97;5044149;28;20193;-65
2021/07/14 03:58:27;;;;;;;7.77;6.10;;;;;;;22.58;76.49;101052.59;5050743;28;20276;-65
2021/07/14 04:00:57;;;;;;;6.67;5.30;;;;;;;22.66;75.91;101048.13;5040629;28;20249;-66
2021/07/14 04:03:28;;;;;;;7.13;5.67;;;;;;;22.70;76.24;101049.50;5040391;28;20204;-65
2021/07/14 04:06:01;;;;;;;6.10;4.93;;;;;;;22.83;75.69;101047.94;5042965;28;20190;-66
2021/07/14 04:08:33;;;;;;;8.83;5.70;;;;;;;22.88;75.32;101041.91;5047444;28;20324;-66
2021/07/14 04:11:01;;;;;;;7.97;5.07;;;;;;;22.96;75.22;101039.16;5052333;28;20769;-65
2021/07/14 04:13:29;;;;;;;6.73;5.50;;;;;;;23.02;75.42;101041.19;5051068;28;20232;-65
2021/07/14 04:15:59;;;;;;;8.13;5.17;;;;;;;23.00;75.31;101035.03;5048217;28;20661;-65
2021/07/14 04:18:27;;;;;;;6.30;5.40;;;;;;;23.10;75.55;101040.28;5043272;28;20206;-65
2021/07/14 04:20:56;;;;;;;8.00;5.77;;;;;;;23.16;75.81;101039.56;5050999;28;20217;-66
2021/07/14 04:23:24;;;;;;;5.83;5.07;;;;;;;23.23;76.04;101041.41;5050750;28;20194;-65
2021/07/14 04:25:52;;;;;;;8.00;5.50;;;;;;;23.32;75.62;101038.66;5050539;28;20259;-65
2021/07/14 04:28:21;;;;;;;7.33;5.80;;;;;;;23.38;76.00;101026.97;5051680;28;20198;-66
2021/07/14 04:30:49;;;;;;;9.07;5.47;;;;;;;23.43;76.54;101035.50;5051125;28;20198;-65
2021/07/14 04:33:18;;;;;;;7.23;5.63;;;;;;;23.48;76.47;101035.81;5051949;28;20247;-66
2021/07/14 04:35:47;;;;;;;8.27;5.77;;;;;;;23.48;76.51;101028.44;5047699;28;20258;-66
2021/07/14 04:38:16;;;;;;;7.87;5.77;;;;;;;23.51;76.53;101016.25;5042438;28;20248;-66
2021/07/14 04:40:45;;;;;;;9.17;5.47;;;;;;;23.62;76.41;101009.53;5050156;28;20297;-66
2021/07/14 04:43:14;;;;;;;6.70;5.50;;;;;;;23.68;76.40;101004.16;5051277;28;20263;-66
2021/07/14 04:45:42;;;;;;;6.47;5.40;;;;;;;23.77;75.93;101005.81;5050152;28;20837;-66
2021/07/14 04:48:10;;;;;;;8.97;5.33;;;;;;;23.80;75.88;100999.09;5048883;28;20685;-66
2021/07/14 04:50:40;;;;;;;7.40;5.47;;;;;;;23.72;76.29;100986.31;5051360;28;20251;-66
2021/07/14 04:53:08;;;;;;;8.37;5.90;;;;;;;23.90;76.97;101005.22;5050610;28;20221;-66
2021/07/14 04:55:38;;;;;;;5.83;5.20;;;;;;;23.93;77.36;101004.84;5051296;28;20206;-66
2021/07/14 04:58:06;;;;;;;7.07;5.63;;;;;;;24.04;77.22;101006.28;5050697;28;20201;-66
2021/07/14 05:00:35;;;;;;;7.60;5.27;;;;;;;24.12;76.98;101001.56;5049969;28;20304;-66
2021/07/14 05:03:04;;;;;;;7.13;5.60;;;;;;;24.25;77.39;100991.84;5041390;28;20244;-66
2021/07/14 05:05:32;;;;;;;7.07;5.50;;;;;;;24.38;77.17;100994.81;5041457;28;20570;-66
2021/07/14 05:08:02;;;;;;;6.63;5.30;;;;;;;24.52;77.36;100994.00;5035786;28;20203;-67
2021/07/14 05:10:31;;;;;;;6.67;5.37;;;;;;;24.68;76.77;100992.94;5048040;28;20198;-67
2021/07/14 05:12:59;;;;;;;7.93;5.30;;;;;;;24.71;77.12;100984.31;5046060;28;20280;-66
2021/07/14 05:15:28;;;;;;;6.93;5.23;;;;;;;24.83;76.69;100979.22;5048981;28;20280;-67
2021/07/14 05:17:56;;;;;;;9.07;5.70;;;;;;;25.01;76.53;100982.41;5048869;28;20194;-66
2021/07/14 05:20:24;;;;;;;7.50;5.68;;;;;;;25.00;75.64;100983.47;5048881;28;20198;-66
2021/07/14 05:22:52;;;;;;;8.50;5.63;;;;;;;25.10;75.53;100983.16;5046446;28;20864;-66
2021/07/14 05:25:21;;;;;;;8.60;5.70;;;;;;;25.10;74.72;100983.16;5048118;28;20206;-66
2021/07/14 05:27:50;;;;;;;6.13;5.20;;;;;;;25.25;75.12;100972.97;5045763;28;20839;-67
2021/07/14 05:30:18;;;;;;;6.72;5.57;;;;;;;25.26;73.79;100980.19;5047251;28;20194;-67
2021/07/14 05:32:46;;;;;;;7.22;5.70;;;;;;;25.33;74.33;100981.97;5048284;28;20662;-67
2021/07/14 05:35:15;;;;;;;8.35;5.63;;;;;;;25.58;73.46;100984.34;5047260;28;20206;-66
2021/07/14 05:37:43;;;;;;;8.43;5.75;;;;;;;25.53;73.04;100987.69;5045240;28;20697;-68
2021/07/14 05:40:12;;;;;;;8.23;5.47;;;;;;;25.69;72.52;100978.34;5048597;28;20205;-68
2021/07/14 05:42:42;;;;;;;6.75;5.40;;;;;;;25.62;72.53;100952.63;5047793;28;20317;-68
2021/07/14 05:45:11;;;;;;;9.65;5.20;;;;;;;25.80;71.02;100977.81;5047105;28;20534;-66
2021/07/14 05:47:39;;;;;;;8.20;5.60;;;;;;;26.01;70.98;100985.19;5045306;28;20225;-67
2021/07/14 05:50:09;;;;;;;9.20;5.47;;;;;;;26.22;71.48;100984.31;5042904;28;20281;-67
2021/07/14 05:52:37;;;;;;;10.13;5.28;;;;;;;26.45;70.92;100978.56;5046604;28;20676;-69
2021/07/14 05:55:09;;;;;;;6.30;5.45;;;;;;;26.53;69.21;100978.41;5045516;28;20305;-68
2021/07/14 05:57:38;;;;;;;6.05;5.45;;;;;;;26.59;70.50;100966.56;5048969;28;20227;-68
2021/07/14 06:00:09;;;;;;;8.95;6.15;;;;;;;26.67;68.54;100971.94;5050197;28;20252;-68
2021/07/14 06:02:37;;;;;;;7.93;5.93;;;;;;;26.88;68.49;100979.22;5047488;28;20297;-68
2021/07/14 06:05:07;;;;;;;7.22;5.60;;;;;;;27.04;68.33;100987.19;5046491;28;20222;-69
2021/07/14 06:07:35;;;;;;;7.40;5.45;;;;;;;27.18;68.23;100968.78;5043506;28;20277;-69
2021/07/14 06:10:04;;;;;;;8.75;5.72;;;;;;;27.37;68.15;100976.28;5062727;28;20208;-69
2021/07/14 06:12:32;;;;;;;8.73;5.43;;;;;;;27.41;66.82;100941.69;5041873;28;20230;-70
2021/07/14 06:15:01;;;;;;;6.78;5.60;;;;;;;27.74;65.75;100977.63;5045899;28;20661;-68
2021/07/14 06:17:30;;;;;;;7.32;5.40;;;;;;;27.73;65.95;100953.84;5048053;28;20743;-69
2021/07/14 06:19:59;;;;;;;6.63;5.82;;;;;;;28.05;63.60;100974.25;5046729;28;20236;-69
2021/07/14 06:22:27;;;;;;;7.03;5.40;;;;;;;28.23;63.58;100976.38;5041975;28;20310;-69
2021/07/14 06:24:56;;;;;;;9.10;5.55;;;;;;;28.47;62.29;100982.31;5043580;28;20248;-69
2021/07/14 06:27:40;;;;;;;10.38;6.00;;;;;;;28.47;61.18;100968.50;5039811;28;20532;-69
2021/07/14 06:30:10;;;;;;;6.70;5.30;;;;;;;28.66;60.72;100985.03;5041615;28;20198;-69
2021/07/14 06:32:40;;;;;;;7.22;5.78;;;;;;;28.77;60.51;100986.28;5044873;28;20555;-69
2021/07/14 06:35:11;;;;;;;6.57;5.18;;;;;;;29.07;60.20;100983.84;5048778;28;20214;-69
2021/07/14 06:37:40;;;;;;;7.05;6.13;;;;;;;29.17;59.67;100987.03;5042677;28;20199;-69
2021/07/14 06:40:10;;;;;;;7.57;5.38;;;;;;;29.33;59.76;100989.25;5043390;28;20213;-69
2021/07/14 06:42:39;;;;;;;10.68;5.45;;;;;;;29.45;59.17;101008.84;5048376;28;20685;-69
2021/07/14 06:45:10;;;;;;;12.18;5.43;;;;;;;29.70;59.17;101011.69;5049174;28;20202;-68
2021/07/14 06:47:39;;;;;;;9.95;5.00;;;;;;;29.63;58.74;101016.38;5047691;28;20197;-68
2021/07/14 06:50:11;;;;;;;6.72;5.32;;;;;;;29.48;57.93;101013.09;5049213;28;20197;-68
2021/07/14 06:52:40;;;;;;;5.10;4.60;;;;;;;29.16;58.02;101009.38;5047116;28;20846;-69
2021/07/14 06:55:10;;;;;;;6.38;4.57;;;;;;;29.06;58.74;101001.53;5041336;28;20186;-69
2021/07/14 07:21:07;;;;;;;6.18;5.05;;;;;;;29.52;55.96;100915.50;5108333;27;20572;-67
2021/07/14 07:23:37;;;;;;;6.10;4.95;;;;;;;30.13;55.46;101005.41;5099907;28;20212;-67
2021/07/14 07:26:06;;;;;;;7.15;4.60;;;;;;;29.98;54.94;101006.53;5103441;28;20662;-68
2021/07/14 07:28:40;;;;;;;8.25;5.20;;;;;;;29.95;54.99;100989.53;5100029;28;20373;-68
2021/07/14 07:31:09;;;;;;;5.78;5.00;;;;;;;30.22;54.64;101015.97;5103643;28;20274;-67
2021/07/14 07:33:37;;;;;;;9.90;4.70;;;;;;;30.22;54.87;101012.34;5096547;28;20205;-67
2021/07/14 07:36:07;;;;;;;6.25;4.85;;;;;;;30.12;54.63;101020.34;5098881;28;20671;-67
2021/07/14 07:38:38;;;;;;;5.57;4.45;;;;;;;30.39;53.72;101023.72;5103793;28;20196;-68
2021/07/14 07:41:06;;;;;;;5.13;4.63;;;;;;;30.17;54.44;101026.03;5098907;28;20730;-67
2021/07/14 07:43:35;;;;;;;7.43;4.50;;;;;;;30.67;53.32;101026.03;5104994;28;20766;-66
2021/07/14 07:46:04;;;;;;;5.07;4.57;;;;;;;30.75;53.53;101032.13;5103319;28;20219;-67
2021/07/14 07:48:32;;;;;;;4.72;4.20;;;;;;;30.65;54.13;101037.38;5106568;28;20200;-66
2021/07/14 07:51:00;;;;;;;6.55;4.43;;;;;;;30.48;54.40;101033.44;5107596;28;20196;-67
2021/07/14 07:53:30;;;;;;;5.43;4.80;;;;;;;30.24;54.22;101029.59;5107415;28;20303;-66
2021/07/14 07:55:58;;;;;;;4.93;4.18;;;;;;;30.28;55.32;101037.22;5106274;28;20245;-67
2021/07/14 07:58:27;;;;;;;5.45;4.53;;;;;;;30.12;55.75;101036.97;5102336;28;20215;-66
2021/07/14 08:00:56;;;;;;;5.97;4.63;;;;;;;29.93;54.73;101045.16;5107068;28;20203;-67
2021/07/14 08:03:24;;;;;;;5.57;4.40;;;;;;;30.05;55.28;101037.03;5098616;28;20199;-67
2021/07/14 08:05:52;;;;;;;6.93;4.80;;;;;;;29.97;54.59;101040.84;5100904;28;20598;-66
2021/07/14 08:08:21;;;;;;;6.25;4.68;;;;;;;29.92;55.25;101046.22;5107092;28;20681;-67
2021/07/14 08:10:52;;;;;;;5.75;4.68;;;;;;;30.03;55.23;101041.94;5105858;28;20201;-67
2021/07/14 08:13:21;;;;;;;8.48;4.45;;;;;;;30.03;55.65;101041.09;5106819;28;20219;-66
2021/07/14 08:15:49;;;;;;;6.43;4.22;;;;;;;29.98;54.87;101036.16;5106720;28;20286;-66
2021/07/14 08:18:17;;;;;;;4.60;4.13;;;;;;;29.93;54.67;101027.69;5106775;28;20196;-67
2021/07/14 08:20:46;;;;;;;7.93;4.40;;;;;;;29.95;55.31;101048.56;5100238;28;20806;-67
2021/07/14 08:23:14;;;;;;;7.10;4.30;;;;;;;30.18;54.83;101041.59;5093841;28;20287;-67
2021/07/14 08:25:43;;;;;;;5.68;4.38;;;;;;;30.20;53.78;101045.00;5093882;28;20197;-66
2021/07/14 08:28:13;;;;;;;8.25;5.18;;;;;;;30.38;54.12;101047.84;5092386;28;20691;-67
2021/07/14 08:30:41;;;;;;;5.65;5.15;;;;;;;30.45;53.71;101040.28;5092466;28;20201;-67
2021/07/14 08:33:09;;;;;;;5.28;4.78;;;;;;;30.41;52.59;101035.44;5093847;28;20279;-67
2021/07/14 08:35:40;;;;;;;5.72;4.68;;;;;;;30.56;53.07;101041.47;5093805;28;20204;-68
2021/07/14 08:38:08;;;;;;;7.97;5.00;;;;;;;30.64;52.92;101034.84;5093831;28;20680;-67
2021/07/14 08:40:36;;;;;;;7.40;4.40;;;;;;;30.65;50.16;101042.06;5093417;28;20228;-67
2021/07/14 08:43:07;;;;;;;7.05;4.43;;;;;;;30.65;49.99;101026.28;5093570;28;20197;-67
2021/07/14 08:45:37;;;;;;;7.68;4.65;;;;;;;30.35;49.53;101020.56;5093542;28;20698;-67
2021/07/14 08:48:06;;;;;;;6.25;4.43;;;;;;;30.63;50.85;101031.22;5092384;28;20224;-67
2021/07/14 08:50:42;;;;;;;4.40;4.00;;;;;;;30.57;50.95;101018.19;5093341;28;20271;-67
2021/07/14 08:53:16;;;;;;;5.72;4.35;;;;;;;30.51;50.93;101017.19;5092123;28;20624;-68
2021/07/14 08:55:45;;;;;;;6.75;4.07;;;;;;;30.57;50.51;101013.50;5091891;28;20197;-67
2021/07/14 08:58:14;;;;;;;5.35;4.22;;;;;;;30.81;50.53;101022.03;5093279;28;20200;-67
2021/07/14 09:00:44;;;;;;;7.20;4.35;;;;;;;30.25;51.81;100939.84;5092952;28;20217;-68
2021/07/14 09:03:12;;;;;;;5.97;4.25;;;;;;;30.78;51.59;101012.25;5093773;28;20666;-67
2021/07/14 09:05:41;;;;;;;4.57;4.18;;;;;;;30.83;50.67;101006.00;5092966;28;20201;-67
2021/07/14 09:08:09;;;;;;;5.07;4.10;;;;;;;30.78;49.97;101006.72;5093296;28;20272;-67
2021/07/14 09:10:37;;;;;;;4.38;3.97;;;;;;;30.64;50.29;101002.41;5093235;28;20204;-66
2021/07/14 09:13:06;;;;;;;6.57;4.00;;;;;;;30.69;50.21;101008.09;5091538;28;20211;-66
2021/07/14 09:15:41;;;;;;;7.57;4.15;;;;;;;30.64;50.34;101005.16;5092821;28;20279;-67
2021/07/14 09:18:15;;;;;;;5.25;4.40;;;;;;;30.54;51.36;101002.88;5092847;28;20214;-66
2021/07/14 09:20:44;;;;;;;5.15;4.15;;;;;;;30.54;51.54;100974.28;5092449;28;20234;-66
2021/07/14 09:23:14;;;;;;;4.18;3.40;;;;;;;30.58;52.02;101015.19;5092978;28;20247;-66
2021/07/14 09:25:44;;;;;;;6.05;4.28;;;;;;;30.44;51.40;101007.25;5092859;28;20188;-66
2021/07/14 09:28:17;;;;;;;5.18;4.13;;;;;;;30.35;51.90;101009.47;5092746;28;20197;-67
2021/07/14 09:30:47;;;;;;;5.05;4.10;;;;;;;30.25;52.53;101003.56;5092577;28;20196;-67
2021/07/14 09:33:18;;;;;;;7.28;4.30;;;;;;;30.07;52.14;100989.69;5091563;28;20210;-67
2021/07/14 09:35:47;;;;;;;7.40;4.22;;;;;;;30.52;52.60;101002.25;5079232;28;20201;-67
2021/07/14 09:38:16;;;;;;;4.35;3.95;;;;;;;30.35;51.68;101005.84;5092443;28;20204;-67
2021/07/14 09:40:47;;;;;;;4.85;4.38;;;;;;;30.11;52.00;100996.47;5092282;28;20582;-66
2021/07/14 09:43:17;;;;;;;5.15;4.30;;;;;;;30.09;51.61;100991.16;5092545;28;20759;-66
2021/07/14 09:45:48;;;;;;;5.50;4.35;;;;;;;29.95;51.84;101008.91;5092295;28;20723;-66
2021/07/14 09:48:21;;;;;;;5.00;4.10;;;;;;;29.85;53.20;101003.88;5092586;28;20223;-67
2021/07/14 09:50:52;;;;;;;5.90;4.20;;;;;;;29.90;54.33;100984.66;5090970;28;20557;-67
2021/07/14 09:53:23;;;;;;;5.57;4.40;;;;;;;30.07;53.75;101018.25;5092345;28;20203;-67
2021/07/14 09:55:52;;;;;;;8.98;4.60;;;;;;;30.16;53.52;101007.72;5091921;28;20590;-67
2021/07/14 09:58:27;;;;;;;5.65;4.10;;;;;;;30.23;52.68;101012.13;5090955;28;20197;-67
2021/07/14 10:00:57;;;;;;;5.25;4.13;;;;;;;30.26;53.23;101008.91;5092034;28;20778;-67
2021/07/14 10:03:29;;;;;;;6.13;3.83;;;;;;;30.39;53.09;101004.31;5092061;28;20220;-67
2021/07/14 10:06:09;;;;;;;7.95;4.50;;;;;;;30.63;52.68;101005.41;5091851;28;20699;-68
2021/07/14 10:08:39;;;;;;;6.63;4.40;;;;;;;30.88;51.66;101004.22;5091950;28;20540;-68
2021/07/14 10:11:13;;;;;;;5.82;4.05;;;;;;;31.00;50.32;101006.25;5091736;28;20193;-68
2021/07/14 10:13:51;;;;;;;4.80;3.90;;;;;;;30.86;50.84;101003.63;5091854;28;20212;-67
2021/07/14 10:16:20;;;;;;;5.70;4.95;;;;;;;30.79;50.26;100993.69;5091617;28;20241;-67
2021/07/14 10:19:05;;;;;;;5.28;4.78;;;;;;;30.79;49.70;101007.56;5091343;28;20221;-67
2021/07/14 10:21:35;;;;;;;7.22;4.32;;;;;;;30.83;50.38;101011.56;5091405;28;20216;-67
2021/07/14 10:24:05;;;;;;;5.90;4.82;;;;;;;30.90;50.07;101007.63;5091689;28;20200;-67
2021/07/14 10:26:37;;;;;;;4.93;4.30;;;;;;;30.76;49.89;100985.81;5091393;28;20549;-67
2021/07/14 10:29:06;;;;;;;5.28;4.72;;;;;;;31.12;49.63;101008.00;5091413;28;20208;-67
2021/07/14 10:31:36;;;;;;;7.40;4.30;;;;;;;30.90;49.61;101012.31;5091364;28;20189;-67
2021/07/14 10:34:07;;;;;;;9.52;4.15;;;;;;;30.76;50.03;101008.00;5091470;28;20664;-68
2021/07/14 10:36:38;;;;;;;5.93;4.38;;;;;;;30.76;49.14;101006.09;5091574;28;20235;-67
2021/07/14 10:39:10;;;;;;;6.63;4.53;;;;;;;31.20;49.31;101013.25;5091534;28;20222;-67
2021/07/14 10:41:39;;;;;;;6.70;4.07;;;;;;;31.00;48.75;100976.56;5091196;28;20332;-67
2021/07/14 10:44:08;;;;;;;6.00;4.25;;;;;;;31.18;49.37;101012.66;5091022;28;20275;-67
2021/07/14 10:46:38;;;;;;;5.60;4.38;;;;;;;31.16;48.58;101009.25;5091435;28;20712;-67
2021/07/14 10:49:09;;;;;;;5.57;4.32;;;;;;;31.00;48.82;100987.66;5091413;28;20197;-67
2021/07/14 10:51:39;;;;;;;6.85;4.40;;;;;;;31.37;49.44;101019.03;5091322;28;20311;-67
2021/07/14 10:54:10;;;;;;;8.65;4.57;;;;;;;31.33;48.75;101019.75;5091508;28;20262;-67
2021/07/14 10:56:43;;;;;;;5.28;4.32;;;;;;;31.12;48.82;101021.03;5091585;28;20200;-67
2021/07/14 10:59:13;;;;;;;4.45;4.05;;;;;;;30.96;50.43;101022.53;5091072;28;20216;-67
2021/07/14 11:01:47;;;;;;;4.88;4.15;;;;;;;30.83;49.81;101036.53;5091098;28;20631;-67
2021/07/14 11:04:51;;;;;;;4.78;4.28;;;;;;;30.73;49.56;101025.13;5091162;28;20249;-68
2021/07/14 11:07:35;;;;;;;6.15;4.28;;;;;;;30.73;49.87;101025.13;5089763;28;20196;-68
2021/07/14 11:10:31;;;;;;;5.05;4.45;;;;;;;30.80;50.10;101028.66;5091185;28;20550;-67
2021/07/14 11:13:28;;;;;;;5.55;3.95;;;;;;;30.85;51.24;101028.81;5089507;28;20203;-67
2021/07/14 11:15:57;;;;;;;7.85;4.53;;;;;;;30.89;51.12;101027.28;5090914;28;20204;-67
2021/07/14 11:18:39;;;;;;;7.80;4.32;;;;;;;30.65;49.93;101015.19;5090754;28;20265;-67
2021/07/14 11:21:09;;;;;;;4.40;4.00;;;;;;;30.78;50.33;101016.94;5090796;28;20588;-67
2021/07/14 11:23:46;;;;;;;4.63;4.22;;;;;;;30.70;50.28;101000.63;5090950;28;20711;-67
2021/07/14 11:26:14;;;;;;;5.90;4.00;;;;;;;30.67;50.66;100988.06;5089569;28;20204;-67
2021/07/14 11:29:13;;;;;;;5.07;4.15;;;;;;;30.84;49.92;101018.81;5090638;28;20222;-67
2021/07/14 11:31:44;;;;;;;5.07;4.25;;;;;;;30.60;49.29;100995.59;5090498;28;20681;-67
2021/07/14 11:34:29;;;;;;;4.68;4.00;;;;;;;30.81;49.84;101011.78;5091394;28;20196;-67
2021/07/14 11:37:20;;;;;;;7.97;4.15;;;;;;;30.99;49.38;101027.59;5087692;28;21116;-67
2021/07/14 11:39:48;;;;;;;6.72;4.00;;;;;;;30.63;49.22;101027.59;5090824;28;20211;-67
2021/07/14 11:42:17;;;;;;;4.82;4.30;;;;;;;30.52;49.13;101010.56;5090381;28;20259;-67
2021/07/14 11:44:53;;;;;;;4.40;4.00;;;;;;;30.61;50.17;101018.63;5090731;28;20211;-66
2021/07/14 11:47:34;;;;;;;4.40;4.00;;;;;;;30.54;50.18;101016.72;5090754;28;20284;-66
2021/07/14 11:50:04;;;;;;;7.15;4.05;;;;;;;30.54;49.95;101019.50;5089839;28;20200;-67
2021/07/14 11:52:43;;;;;;;4.63;4.05;;;;;;;30.70;50.41;101025.59;5090649;28;20271;-66
2021/07/14 11:55:36;;;;;;;4.35;3.95;;;;;;;30.63;49.37;101022.03;5090836;28;20204;-67
2021/07/14 11:58:04;;;;;;;4.18;3.78;;;;;;;30.63;49.61;101016.50;5082579;28;20279;-66
2021/07/14 12:00:33;;;;;;;4.25;3.83;;;;;;;30.51;50.47;101003.34;5094261;28;20688;-66
2021/07/14 12:03:03;;;;;;;5.28;4.22;;;;;;;30.45;50.50;100995.94;5094224;28;20220;-67
2021/07/14 12:05:35;;;;;;;6.47;3.95;;;;;;;30.43;50.46;100997.25;5094429;28;20212;-66
2021/07/14 12:08:12;;;;;;;4.70;4.20;;;;;;;30.35;49.74;100990.06;5080425;28;20661;-69
2021/07/14 12:10:41;;;;;;;5.55;4.28;;;;;;;30.13;51.27;100983.22;5094190;28;20219;-67
2021/07/14 12:13:10;;;;;;;4.90;4.50;;;;;;;30.04;51.18;101001.22;5094240;28;20699;-66